Time;durP1;ratioP1;P1;durP2;ratioP2;P2;SDS_P1;SDS_P2;PMS_P1;PMS_P2;Temp;Humidity;BMP_temperature;BMP_pressure;BME280_temperature;BME280_humidity;BME280_pressure;Samples;Min_cycle;Max_cycle;Signal;HPM_P1;HPM_P2
2023/10/22 00:02:05;;;;;;;2.60;0.70;;;15.90;26.80;;;;;;7392763;19;20274;-72
2023/10/22 00:04:31;;;;;;;2.85;0.63;;;15.90;27.60;;;;;;7397742;19;19919;-72
2023/10/22 00:06:58;;;;;;;4.38;1.00;;;15.70;27.80;;;;;;7399855;19;19926;-73
2023/10/22 00:09:23;;;;;;;3.90;0.70;;;15.60;28.50;;;;;;7397466;19;19929;-73
2023/10/22 00:11:49;;;;;;;3.55;0.88;;;15.50;29.20;;;;;;7401866;19;19926;-72
2023/10/22 00:14:15;;;;;;;3.50;1.02;;;15.40;29.70;;;;;;7395739;19;19917;-72
2023/10/22 00:16:41;;;;;;;3.90;1.25;;;15.30;30.00;;;;;;7399720;19;20263;-73
2023/10/22 00:19:07;;;;;;;4.60;1.10;;;15.20;30.40;;;;;;7395862;19;19957;-72
2023/10/22 00:21:33;;;;;;;3.10;0.50;;;15.20;30.90;;;;;;7398899;19;19911;-72
2023/10/22 00:23:58;;;;;;;4.35;0.70;;;15.20;30.70;;;;;;7397914;19;19928;-72
2023/10/22 00:26:24;;;;;;;4.25;0.80;;;15.10;30.50;;;;;;7372341;19;20331;-73
2023/10/22 00:28:50;;;;;;;2.42;0.60;;;15.00;30.60;;;;;;7397220;19;19927;-73
2023/10/22 00:31:16;;;;;;;3.28;0.60;;;14.90;31.10;;;;;;7401801;19;19951;-72
2023/10/22 00:33:41;;;;;;;2.45;0.63;;;14.90;31.40;;;;;;7405874;19;19929;-72
2023/10/22 00:36:09;;;;;;;3.05;0.50;;;14.80;31.40;;;;;;7401844;19;19965;-72
2023/10/22 00:38:35;;;;;;;3.65;0.60;;;14.80;32.00;;;;;;7406689;19;19918;-73
2023/10/22 00:41:02;;;;;;;2.80;0.65;;;14.60;32.20;;;;;;7404640;19;19934;-73
2023/10/22 00:43:27;;;;;;;;;;;14.60;32.20;;;;;;7406959;19;19915;-72
2023/10/22 00:45:54;;;;;;;2.88;0.60;;;14.60;33.30;;;;;;7404318;19;19921;-74
2023/10/22 00:48:21;;;;;;;3.15;0.80;;;14.60;34.20;;;;;;7404484;19;20017;-72
2023/10/22 00:50:47;;;;;;;3.67;0.60;;;14.60;34.70;;;;;;7404459;19;20323;-73
2023/10/22 00:53:16;;;;;;;3.33;0.70;;;14.50;34.90;;;;;;7401041;19;19934;-77
2023/10/22 00:55:47;;;;;;;3.75;0.73;;;14.50;35.30;;;;;;7405505;19;19919;-71
2023/10/22 00:58:15;;;;;;;3.75;0.75;;;14.50;35.70;;;;;;7401579;19;19978;-72
2023/10/22 01:00:41;;;;;;;3.72;0.82;;;14.40;35.80;;;;;;7404148;19;19926;-72
2023/10/22 01:03:07;;;;;;;8.68;0.77;;;14.50;36.10;;;;;;7403173;19;19922;-71
2023/10/22 01:05:39;;;;;;;3.90;0.70;;;14.50;36.80;;;;;;7405800;19;19922;-71
2023/10/22 01:08:05;;;;;;;3.22;0.75;;;14.40;36.30;;;;;;7402828;19;19918;-71
2023/10/22 01:10:32;;;;;;;2.75;0.68;;;14.40;36.00;;;;;;7403130;19;19906;-71
2023/10/22 01:12:59;;;;;;;3.00;0.52;;;14.40;36.50;;;;;;7403395;19;20015;-71
2023/10/22 01:15:26;;;;;;;3.00;0.60;;;14.30;36.90;;;;;;7401777;19;19929;-70
2023/10/22 01:17:52;;;;;;;3.72;0.65;;;14.30;36.70;;;;;;7405403;19;19910;-72
2023/10/22 01:20:17;;;;;;;3.30;0.80;;;14.20;36.50;;;;;;7400740;19;20466;-71
2023/10/22 01:22:43;;;;;;;2.00;0.50;;;14.20;37.00;;;;;;7401885;19;19911;-72
2023/10/22 01:25:10;;;;;;;5.63;1.10;;;14.20;37.40;;;;;;7401395;19;19927;-71
2023/10/22 01:27:36;;;;;;;3.92;1.15;;;14.20;37.60;;;;;;7405517;19;20243;-70
2023/10/22 01:30:03;;;;;;;2.65;0.70;;;14.30;36.80;;;;;;7402748;19;19922;-71
2023/10/22 01:32:33;;;;;;;2.85;0.50;;;14.20;37.10;;;;;;7397824;19;20334;-72
2023/10/22 01:35:02;;;;;;;3.28;0.88;;;14.30;36.60;;;;;;7399534;19;20025;-72
2023/10/22 01:37:28;;;;;;;3.42;0.60;;;14.30;37.20;;;;;;7400747;19;19926;-71
2023/10/22 01:39:54;;;;;;;2.78;0.75;;;14.30;37.50;;;;;;7401381;19;19922;-71
2023/10/22 01:42:20;;;;;;;5.43;0.60;;;14.30;37.30;;;;;;7401606;19;20306;-71
2023/10/22 01:44:46;;;;;;;3.65;0.80;;;14.20;37.50;;;;;;7402268;19;19937;-71
2023/10/22 01:47:12;;;;;;;2.95;0.50;;;14.10;38.10;;;;;;7400091;19;19926;-71
2023/10/22 01:49:38;;;;;;;2.63;0.68;;;14.00;38.30;;;;;;7400231;19;19932;-71
2023/10/22 01:52:04;;;;;;;2.10;0.70;;;13.90;39.10;;;;;;7401071;19;19915;-71
2023/10/22 01:54:30;;;;;;;3.58;0.65;;;13.90;38.90;;;;;;7400291;19;19946;-71
2023/10/22 01:56:56;;;;;;;4.88;0.95;;;13.90;39.40;;;;;;7403607;19;19929;-72
2023/10/22 01:59:22;;;;;;;3.20;0.63;;;13.80;40.00;;;;;;7399237;19;20402;-71
2023/10/22 02:01:48;;;;;;;3.95;0.93;;;13.80;40.60;;;;;;7404087;19;19919;-72
2023/10/22 02:04:13;;;;;;;3.10;0.70;;;13.70;41.10;;;;;;7399876;19;19929;-71
2023/10/22 02:06:39;;;;;;;1.70;0.52;;;13.80;39.70;;;;;;7401840;19;19929;-71
2023/10/22 02:09:05;;;;;;;3.28;0.50;;;14.00;38.80;;;;;;7399307;19;19925;-71
2023/10/22 02:11:31;;;;;;;2.75;0.50;;;14.00;39.10;;;;;;7401594;19;19970;-71
2023/10/22 02:13:58;;;;;;;2.58;0.55;;;14.10;38.00;;;;;;7400235;19;20276;-72
2023/10/22 02:16:24;;;;;;;2.42;0.73;;;14.20;38.00;;;;;;7399610;19;19922;-72
2023/10/22 02:18:50;;;;;;;2.17;0.60;;;14.20;37.80;;;;;;7401228;19;19940;-71
2023/10/22 02:21:16;;;;;;;2.33;0.60;;;14.20;38.50;;;;;;7399507;19;19923;-70
2023/10/22 02:23:42;;;;;;;3.78;0.80;;;14.10;39.40;;;;;;7400394;19;19939;-71
2023/10/22 02:26:08;;;;;;;1.75;0.43;;;14.00;39.30;;;;;;7400530;19;19946;-71
2023/10/22 02:28:34;;;;;;;1.83;0.47;;;14.10;39.50;;;;;;7402222;19;20339;-71
2023/10/22 02:31:00;;;;;;;3.00;0.40;;;14.10;38.60;;;;;;7402930;19;19942;-71
2023/10/22 02:33:26;;;;;;;3.60;0.50;;;14.20;38.40;;;;;;7400803;19;19910;-72
2023/10/22 02:35:51;;;;;;;3.95;1.00;;;14.20;38.90;;;;;;7402699;19;19915;-71
2023/10/22 02:38:18;;;;;;;3.38;0.45;;;14.20;39.80;;;;;;7398505;19;19947;-73
2023/10/22 02:40:48;;;;;;;3.67;0.70;;;14.10;39.90;;;;;;7400670;19;19994;-71
2023/10/22 02:43:15;;;;;;;4.40;0.63;;;13.90;39.50;;;;;;7399250;19;20343;-70
2023/10/22 02:45:55;;;;;;;2.90;0.60;;;14.00;40.80;;;;;;7396441;19;20620;-71
2023/10/22 02:48:21;;;;;;;4.35;0.60;;;13.90;41.30;;;;;;7395230;19;19915;-71
2023/10/22 02:50:47;;;;;;;2.92;0.60;;;14.00;40.90;;;;;;7401071;19;19925;-72
2023/10/22 02:53:13;;;;;;;3.10;0.52;;;14.00;40.50;;;;;;7396505;19;20370;-72
2023/10/22 02:55:39;;;;;;;2.58;0.70;;;14.10;40.50;;;;;;7398394;19;20342;-71
2023/10/22 02:58:06;;;;;;;4.03;0.40;;;14.10;39.60;;;;;;7397573;19;19919;-71
2023/10/22 03:00:33;;;;;;;3.00;0.55;;;14.10;39.50;;;;;;7398046;19;20464;-72
2023/10/22 03:02:59;;;;;;;3.55;0.60;;;14.00;39.70;;;;;;7400497;19;19922;-72
2023/10/22 03:05:24;;;;;;;3.88;0.73;;;14.10;39.80;;;;;;7396183;19;19923;-71
2023/10/22 03:07:50;;;;;;;3.88;0.68;;;14.00;40.20;;;;;;7398988;19;19925;-71
2023/10/22 03:10:16;;;;;;;5.18;0.63;;;13.90;40.40;;;;;;7397845;19;19925;-71
2023/10/22 03:12:43;;;;;;;4.05;0.75;;;13.90;40.40;;;;;;7396020;19;19922;-71
2023/10/22 03:15:09;;;;;;;2.70;0.60;;;13.90;40.00;;;;;;7396199;19;19919;-72
2023/10/22 03:17:36;;;;;;;1.92;0.60;;;13.80;40.60;;;;;;7397561;19;19918;-72
2023/10/22 03:20:03;;;;;;;2.72;0.70;;;14.00;39.10;;;;;;7398409;19;20484;-71
2023/10/22 03:22:30;;;;;;;3.70;0.60;;;14.00;39.70;;;;;;7398239;19;19952;-71
2023/10/22 03:24:56;;;;;;;2.22;0.50;;;13.90;41.10;;;;;;7396086;19;19918;-72
2023/10/22 03:27:21;;;;;;;3.08;0.50;;;13.90;41.10;;;;;;7395488;19;19914;-71
2023/10/22 03:29:47;;;;;;;2.42;0.55;;;13.80;41.00;;;;;;7397915;19;20446;-71
2023/10/22 03:32:13;;;;;;;3.25;0.50;;;13.90;40.50;;;;;;7397412;19;19922;-72
2023/10/22 03:34:39;;;;;;;4.40;0.75;;;14.00;40.10;;;;;;7396192;19;20453;-71
2023/10/22 03:37:05;;;;;;;2.42;0.40;;;14.10;40.30;;;;;;7396869;19;19939;-71
2023/10/22 03:39:32;;;;;;;3.15;0.45;;;14.20;39.50;;;;;;7398075;19;19914;-71
2023/10/22 03:41:57;;;;;;;3.78;0.68;;;14.10;39.30;;;;;;7399192;19;20457;-71
2023/10/22 03:44:23;;;;;;;2.55;0.50;;;14.20;39.20;;;;;;7394123;19;19942;-71
2023/10/22 03:46:49;;;;;;;5.65;0.90;;;14.20;39.90;;;;;;7226062;19;3380371;-71
2023/10/22 03:49:15;;;;;;;4.70;1.02;;;14.10;39.70;;;;;;7396254;19;19974;-71
2023/10/22 03:51:40;;;;;;;2.92;0.55;;;14.10;40.20;;;;;;7398770;19;19926;-71
2023/10/22 03:54:06;;;;;;;3.03;0.93;;;14.10;40.70;;;;;;7399350;19;19918;-72
2023/10/22 03:56:34;;;;;;;5.15;1.15;;;14.10;40.90;;;;;;7398445;19;19978;-72
2023/10/22 03:59:00;;;;;;;4.93;0.63;;;14.00;41.30;;;;;;7395061;19;19914;-71
2023/10/22 04:01:26;;;;;;;3.40;0.60;;;13.90;42.00;;;;;;7399003;19;19926;-71
2023/10/22 04:03:52;;;;;;;4.45;0.70;;;13.80;42.20;;;;;;7397518;19;19918;-71
2023/10/22 04:06:18;;;;;;;3.58;0.70;;;13.80;42.40;;;;;;7403197;19;19923;-71
2023/10/22 04:08:44;;;;;;;3.28;0.63;;;13.90;42.40;;;;;;7404038;19;20300;-71
2023/10/22 04:11:09;;;;;;;5.38;0.80;;;13.90;43.20;;;;;;7402986;19;19923;-71
2023/10/22 04:13:35;;;;;;;2.50;0.60;;;13.80;43.70;;;;;;7403594;19;19978;-71
2023/10/22 04:16:01;;;;;;;2.35;0.50;;;13.80;44.20;;;;;;7404917;19;20010;-71
2023/10/22 04:18:27;;;;;;;3.15;0.47;;;13.90;43.70;;;;;;7402999;19;19922;-71
2023/10/22 04:20:52;;;;;;;2.38;0.55;;;13.80;44.00;;;;;;7405261;19;19918;-72
2023/10/22 04:23:19;;;;;;;4.43;0.70;;;13.80;44.40;;;;;;7402821;19;19918;-71
2023/10/22 04:25:45;;;;;;;3.88;1.05;;;13.80;44.40;;;;;;7403580;19;19930;-72
2023/10/22 04:28:15;;;;;;;3.15;0.65;;;14.00;43.40;;;;;;7380328;19;19930;-71
2023/10/22 04:30:45;;;;;;;3.83;0.57;;;14.10;43.20;;;;;;7401794;19;20296;-71
2023/10/22 04:33:11;;;;;;;2.47;0.57;;;14.10;42.70;;;;;;7404166;19;19918;-71
2023/10/22 04:35:37;;;;;;;2.25;0.50;;;14.10;43.20;;;;;;7399416;19;19939;-72
2023/10/22 04:38:03;;;;;;;3.67;0.73;;;14.00;44.00;;;;;;7404204;19;19918;-72
2023/10/22 04:40:33;;;;;;;2.67;0.70;;;14.00;44.80;;;;;;7404347;19;19959;-71
2023/10/22 04:42:59;;;;;;;2.78;0.70;;;14.00;45.20;;;;;;7405079;19;20465;-71
2023/10/22 04:45:25;;;;;;;3.75;0.40;;;14.10;44.00;;;;;;7402624;19;19923;-72
2023/10/22 04:47:51;;;;;;;4.32;0.47;;;14.10;44.00;;;;;;7397665;19;19919;-73
2023/10/22 04:50:17;;;;;;;3.17;0.73;;;14.10;44.00;;;;;;7401775;19;20223;-71
2023/10/22 04:52:43;;;;;;;4.15;0.60;;;14.00;44.70;;;;;;7402700;19;19929;-71
2023/10/22 04:55:12;;;;;;;3.55;0.63;;;14.00;44.50;;;;;;7403161;19;19987;-72
2023/10/22 04:57:39;;;;;;;3.85;0.50;;;14.00;45.10;;;;;;7402999;19;19929;-72
2023/10/22 05:00:09;;;;;;;3.10;1.08;;;13.90;45.80;;;;;;7402220;19;19915;-72
2023/10/22 05:02:36;;;;;;;3.30;0.43;;;13.90;45.70;;;;;;7402279;19;19918;-71
2023/10/22 05:05:03;;;;;;;2.38;0.50;;;13.80;46.50;;;;;;7399782;19;19922;-72
2023/10/22 05:07:29;;;;;;;2.42;0.77;;;13.90;46.70;;;;;;7402392;19;19923;-72
2023/10/22 05:09:55;;;;;;;2.88;0.68;;;13.90;46.90;;;;;;7403173;19;19939;-71
2023/10/22 05:12:21;;;;;;;2.75;0.75;;;13.90;46.90;;;;;;7401817;19;20450;-72
2023/10/22 05:14:46;;;;;;;3.55;0.70;;;13.80;46.80;;;;;;7400723;19;20003;-71
2023/10/22 05:17:13;;;;;;;5.20;1.75;;;13.80;47.40;;;;;;7402947;19;19919;-71
2023/10/22 05:19:39;;;;;;;2.97;0.85;;;13.70;47.80;;;;;;7404795;19;20261;-70
2023/10/22 05:22:05;;;;;;;5.35;2.25;;;13.70;49.20;;;;;;7401243;19;19929;-71
2023/10/22 05:24:31;;;;;;;5.55;0.77;;;13.70;49.10;;;;;;7402237;19;19915;-71
2023/10/22 05:26:57;;;;;;;3.65;0.80;;;13.60;49.50;;;;;;7403421;19;19990;-71
2023/10/22 05:29:23;;;;;;;2.58;0.63;;;13.60;50.10;;;;;;7402775;19;20351;-71
2023/10/22 05:31:50;;;;;;;4.75;0.98;;;13.70;50.90;;;;;;7401583;19;20813;-71
2023/10/22 05:34:15;;;;;;;;;;;13.70;50.50;;;;;;7399557;19;19930;-71
2023/10/22 05:36:42;;;;;;;5.85;1.02;;;13.80;50.70;;;;;;7402270;19;20255;-72
2023/10/22 05:39:07;;;;;;;5.28;0.65;;;13.70;50.80;;;;;;7399460;19;19929;-72
2023/10/22 05:41:34;;;;;;;2.63;0.63;;;13.70;51.70;;;;;;7399823;19;20351;-72
2023/10/22 05:44:02;;;;;;;3.25;0.60;;;13.70;51.80;;;;;;7401754;19;19918;-71
2023/10/22 05:46:32;;;;;;;3.78;0.70;;;13.80;52.30;;;;;;7400030;19;19922;-72
2023/10/22 05:48:59;;;;;;;3.45;0.63;;;13.80;52.30;;;;;;7400906;19;19911;-73
2023/10/22 05:51:25;;;;;;;2.08;0.52;;;13.80;52.70;;;;;;7399889;19;19918;-71
2023/10/22 05:53:51;;;;;;;3.60;0.80;;;13.70;54.00;;;;;;7404102;19;19958;-71
2023/10/22 05:56:17;;;;;;;4.15;0.65;;;13.70;53.90;;;;;;7399851;19;19915;-74
2023/10/22 05:58:43;;;;;;;3.70;0.77;;;13.60;54.70;;;;;;7403273;19;20319;-72
2023/10/22 06:01:10;;;;;;;3.22;0.60;;;13.60;55.20;;;;;;7400155;19;19990;-72
2023/10/22 06:03:36;;;;;;;4.25;0.90;;;13.60;55.50;;;;;;7403300;19;20522;-74
2023/10/22 06:06:03;;;;;;;4.80;0.75;;;13.70;56.60;;;;;;7399859;19;19922;-71
2023/10/22 06:08:28;;;;;;;4.22;0.88;;;13.60;56.80;;;;;;7403297;19;19929;-72
2023/10/22 06:10:54;;;;;;;5.93;1.30;;;13.60;57.30;;;;;;7403295;19;20509;-72
2023/10/22 06:13:20;;;;;;;3.60;0.82;;;13.60;57.80;;;;;;7399310;19;19911;-71
2023/10/22 06:15:46;;;;;;;6.32;1.10;;;13.60;58.50;;;;;;7404148;19;19926;-71
2023/10/22 06:18:12;;;;;;;4.78;1.08;;;13.70;58.60;;;;;;7399702;19;19929;-72
2023/10/22 06:20:38;;;;;;;4.35;0.98;;;13.70;58.60;;;;;;7403472;19;19931;-71
2023/10/22 06:23:05;;;;;;;6.20;1.30;;;13.60;59.50;;;;;;7399802;19;19911;-71
2023/10/22 06:25:32;;;;;;;3.60;1.08;;;13.70;59.40;;;;;;7402784;19;19994;-71
2023/10/22 06:27:59;;;;;;;4.05;1.17;;;13.80;59.20;;;;;;7400768;19;20363;-71
2023/10/22 06:30:26;;;;;;;3.58;0.98;;;13.80;59.20;;;;;;7402233;19;19939;-72
2023/10/22 06:32:53;;;;;;;9.68;3.30;;;13.80;59.20;;;;;;7399553;19;19965;-71
2023/10/22 06:35:20;;;;;;;5.00;1.00;;;13.80;58.90;;;;;;7399004;19;19931;-71
2023/10/22 06:37:50;;;;;;;4.85;1.20;;;13.90;58.60;;;;;;7402799;19;19930;-71
2023/10/22 06:40:17;;;;;;;4.07;1.15;;;13.90;58.50;;;;;;7399766;19;19923;-73
2023/10/22 06:42:42;;;;;;;3.95;1.13;;;13.90;58.30;;;;;;7402753;19;19922;-71
2023/10/22 06:45:09;;;;;;;3.28;0.98;;;13.90;58.10;;;;;;7401077;19;19927;-73
2023/10/22 06:47:39;;;;;;;6.07;1.13;;;13.90;58.00;;;;;;7401189;19;19918;-71
2023/10/22 06:50:07;;;;;;;4.18;0.90;;;13.90;58.10;;;;;;7394196;19;19918;-71
2023/10/22 06:52:34;;;;;;;3.75;1.08;;;13.90;58.30;;;;;;7400388;19;19914;-72
2023/10/22 06:54:59;;;;;;;4.55;1.10;;;14.00;58.40;;;;;;7402213;19;20359;-71
2023/10/22 06:57:25;;;;;;;2.55;0.80;;;14.10;58.40;;;;;;7399474;19;19990;-72
2023/10/22 06:59:54;;;;;;;4.57;1.02;;;14.10;57.90;;;;;;7402015;19;20041;-72
2023/10/22 07:02:19;;;;;;;4.88;1.10;;;14.20;57.40;;;;;;7400701;19;20258;-72
2023/10/22 07:04:47;;;;;;;4.95;1.15;;;14.40;56.50;;;;;;7399214;19;19924;-72
2023/10/22 07:07:13;;;;;;;3.80;0.80;;;14.40;55.80;;;;;;7399574;19;19988;-72
2023/10/22 07:09:39;;;;;;;3.38;1.00;;;14.50;55.00;;;;;;7400984;19;19925;-73
2023/10/22 07:12:05;;;;;;;4.88;1.33;;;14.60;54.10;;;;;;7399503;19;19929;-72
2023/10/22 07:14:31;;;;;;;7.45;1.38;;;14.70;53.40;;;;;;7400736;19;19922;-71
2023/10/22 07:16:57;;;;;;;4.57;0.85;;;14.70;52.90;;;;;;7400948;19;19957;-73
2023/10/22 07:19:22;;;;;;;4.15;1.20;;;14.80;52.20;;;;;;7394820;19;19943;-72
2023/10/22 07:21:48;;;;;;;3.10;0.68;;;14.80;51.70;;;;;;7400744;19;19966;-73
2023/10/22 07:24:14;;;;;;;4.38;0.90;;;14.90;51.60;;;;;;7398408;19;20402;-72
2023/10/22 07:26:40;;;;;;;3.05;0.70;;;15.00;51.60;;;;;;7399850;19;19919;-74
2023/10/22 07:29:06;;;;;;;3.40;0.95;;;15.10;50.80;;;;;;7398968;19;19918;-73
2023/10/22 07:31:32;;;;;;;2.67;0.80;;;15.10;50.40;;;;;;7399831;19;19931;-71
2023/10/22 07:33:58;;;;;;;5.13;1.00;;;15.20;50.50;;;;;;7401158;19;19914;-73
2023/10/22 07:36:24;;;;;;;2.65;0.70;;;15.30;50.70;;;;;;7400044;19;19967;-72
2023/10/22 07:38:51;;;;;;;4.47;1.05;;;15.40;50.90;;;;;;7399764;19;19919;-72
2023/10/22 07:41:19;;;;;;;4.10;0.77;;;15.40;51.10;;;;;;7397583;19;19946;-72
2023/10/22 07:43:46;;;;;;;5.13;0.90;;;15.50;50.90;;;;;;7396248;19;19919;-72
2023/10/22 07:46:14;;;;;;;6.38;1.30;;;15.60;50.60;;;;;;7398307;19;19986;-72
2023/10/22 07:48:41;;;;;;;3.28;0.80;;;15.70;49.80;;;;;;7399323;19;19994;-73
2023/10/22 07:51:13;;;;;;;4.68;1.00;;;15.70;48.60;;;;;;7395027;19;19915;-73
2023/10/22 07:53:39;;;;;;;5.72;1.15;;;15.80;48.20;;;;;;7380553;19;20338;-74
2023/10/22 07:56:06;;;;;;;3.88;0.98;;;15.90;47.60;;;;;;7394782;19;19926;-72
2023/10/22 07:58:35;;;;;;;4.15;1.08;;;16.00;47.30;;;;;;7397114;19;19922;-72
2023/10/22 08:01:02;;;;;;;4.60;1.00;;;16.10;47.00;;;;;;7398853;19;19918;-73
2023/10/22 08:03:29;;;;;;;4.63;1.02;;;16.20;46.70;;;;;;7394939;19;19922;-75
2023/10/22 08:05:55;;;;;;;3.75;1.05;;;16.30;46.60;;;;;;7397418;19;19926;-74
2023/10/22 08:08:22;;;;;;;3.47;0.88;;;16.40;46.60;;;;;;7394882;19;19923;-72
2023/10/22 08:10:48;;;;;;;4.28;0.85;;;16.60;46.20;;;;;;7397669;19;19925;-73
2023/10/22 08:13:14;;;;;;;3.47;1.10;;;16.70;45.70;;;;;;7394797;19;19919;-73
2023/10/22 08:16:26;;;;;;;2.70;0.90;;;16.90;45.60;;;;;;7398570;19;19927;-75
2023/10/22 08:18:52;;;;;;;4.38;1.20;;;17.20;44.80;;;;;;7374942;19;19918;-74
2023/10/22 08:21:18;;;;;;;4.93;0.90;;;17.30;44.00;;;;;;7397534;19;20011;-72
2023/10/22 08:23:44;;;;;;;5.32;0.95;;;17.70;43.20;;;;;;7396959;19;19918;-72
2023/10/22 08:26:09;;;;;;;4.93;1.23;;;18.00;41.60;;;;;;7397573;19;19926;-71
2023/10/22 08:28:36;;;;;;;4.50;1.20;;;18.60;39.70;;;;;;7397277;19;19942;-71
2023/10/22 08:31:02;;;;;;;5.32;1.35;;;19.50;37.20;;;;;;7398344;19;20561;-72
2023/10/22 08:33:29;;;;;;;9.40;1.20;;;19.90;34.80;;;;;;7396670;19;20036;-72
2023/10/22 08:35:55;;;;;;;5.07;1.38;;;20.30;32.60;;;;;;7397864;19;19922;-71
2023/10/22 08:38:21;;;;;;;2.72;1.02;;;21.60;30.30;;;;;;7397537;19;19974;-73
2023/10/22 08:40:50;;;;;;;3.17;0.98;;;21.20;29.10;;;;;;7399846;19;19935;-72
2023/10/22 08:43:17;;;;;;;3.70;0.98;;;20.40;30.00;;;;;;7397442;19;19922;-73
2023/10/22 08:45:46;;;;;;;3.92;1.13;;;19.80;31.60;;;;;;7396232;19;20390;-74
2023/10/22 08:48:14;;;;;;;3.97;1.38;;;19.50;32.70;;;;;;7394250;19;19930;-72
2023/10/22 08:50:43;;;;;;;3.53;1.17;;;19.60;33.30;;;;;;7400482;19;19915;-72
2023/10/22 08:53:12;;;;;;;4.50;1.00;;;20.10;32.20;;;;;;7401619;19;20354;-75
2023/10/22 08:55:45;;;;;;;5.78;1.15;;;20.80;30.40;;;;;;7403516;19;19922;-72
2023/10/22 08:58:14;;;;;;;5.15;1.20;;;21.10;29.50;;;;;;7403881;19;20345;-72
2023/10/22 09:00:46;;;;;;;4.15;1.10;;;21.00;29.30;;;;;;7402262;19;20347;-73
2023/10/22 09:03:16;;;;;;;4.57;0.93;;;20.80;29.70;;;;;;7401178;19;19914;-73
2023/10/22 09:05:43;;;;;;;4.20;1.10;;;20.60;30.00;;;;;;7403049;19;19925;-73
2023/10/22 09:08:09;;;;;;;3.63;1.27;;;20.50;30.20;;;;;;7400372;19;19936;-73
2023/10/22 09:10:37;;;;;;;6.57;2.95;;;20.20;31.20;;;;;;7398264;19;19936;-73
2023/10/22 09:13:23;;;;;;;5.53;2.10;;;20.00;32.20;;;;;;7401183;19;20342;-73
2023/10/22 09:15:50;;;;;;;4.38;1.20;;;19.90;32.70;;;;;;7405292;19;19931;-73
2023/10/22 09:18:17;;;;;;;6.15;1.42;;;20.10;32.90;;;;;;7400445;19;19922;-73
2023/10/22 09:20:45;;;;;;;4.45;1.13;;;20.00;32.60;;;;;;7402570;19;19939;-72
2023/10/22 09:23:18;;;;;;;3.22;0.98;;;19.80;33.30;;;;;;7396639;19;19926;-72
2023/10/22 09:25:56;;;;;;;2.60;0.90;;;19.80;33.70;;;;;;7403811;19;19922;-72
2023/10/22 09:28:30;;;;;;;5.00;1.00;;;19.70;34.00;;;;;;7403845;19;19910;-74
2023/10/22 09:30:59;;;;;;;4.45;1.13;;;19.60;34.60;;;;;;7404333;19;19914;-73
2023/10/22 09:33:35;;;;;;;3.78;1.33;;;19.50;34.90;;;;;;7396364;19;19990;-73
2023/10/22 09:36:10;;;;;;;3.80;1.05;;;19.40;35.80;;;;;;7401773;19;19915;-73
2023/10/22 09:38:44;;;;;;;3.70;1.08;;;19.30;36.80;;;;;;7403094;19;19922;-72
2023/10/22 09:41:23;;;;;;;4.53;1.02;;;19.30;37.00;;;;;;7400188;19;20353;-73
2023/10/22 09:43:50;;;;;;;5.20;1.27;;;19.30;36.90;;;;;;7402199;19;19922;-73
2023/10/22 09:46:21;;;;;;;3.55;0.85;;;19.30;37.40;;;;;;7402098;19;19923;-72
2023/10/22 09:48:49;;;;;;;4.53;1.25;;;19.40;37.10;;;;;;7402336;19;19922;-72
2023/10/22 09:51:17;;;;;;;6.03;1.35;;;19.40;37.40;;;;;;7400348;19;20495;-73
2023/10/22 09:53:56;;;;;;;4.75;1.08;;;19.70;37.20;;;;;;7398701;19;19939;-73
2023/10/22 09:56:23;;;;;;;4.70;1.15;;;19.80;36.40;;;;;;7404217;19;19922;-72
2023/10/22 09:59:13;;;;;;;4.03;0.93;;;19.80;36.40;;;;;;7405121;19;19914;-72
2023/10/22 10:01:39;;;;;;;5.75;0.90;;;19.70;36.30;;;;;;7396177;19;19915;-73
2023/10/22 10:04:06;;;;;;;4.75;0.98;;;19.50;36.60;;;;;;7398343;19;19945;-72
2023/10/22 10:06:33;;;;;;;3.70;1.10;;;19.40;37.40;;;;;;7402164;19;19926;-72
2023/10/22 10:09:03;;;;;;;3.95;0.93;;;19.40;37.80;;;;;;7400714;19;20272;-72
2023/10/22 10:11:30;;;;;;;6.20;1.52;;;19.60;37.70;;;;;;7401334;19;19986;-72
2023/10/22 10:13:56;;;;;;;4.85;1.25;;;20.20;36.40;;;;;;7401429;19;19914;-72
2023/10/22 10:16:25;;;;;;;4.47;1.13;;;21.30;33.50;;;;;;7398847;19;19918;-73
2023/10/22 10:19:06;;;;;;;4.60;1.20;;;22.60;30.00;;;;;;7400777;19;20238;-72
2023/10/22 10:21:39;;;;;;;4.78;1.38;;;23.30;28.10;;;;;;7396355;19;20805;-73
2023/10/22 10:24:14;;;;;;;;;;;23.60;26.80;;;;;;7398203;19;19922;-73
2023/10/22 10:26:40;;;;;;;4.75;1.35;;;23.10;27.70;;;;;;7398671;19;19918;-73
2023/10/22 10:29:06;;;;;;;3.28;1.08;;;23.10;27.80;;;;;;7395236;19;19922;-72
2023/10/22 10:31:32;;;;;;;3.75;1.20;;;23.00;28.50;;;;;;7396887;19;19923;-72
2023/10/22 10:34:02;;;;;;;3.45;1.00;;;23.00;28.40;;;;;;7397302;19;19946;-74
2023/10/22 10:36:28;;;;;;;4.25;1.30;;;23.50;28.30;;;;;;7397967;19;20000;-73
2023/10/22 10:39:14;;;;;;;3.75;1.00;;;23.80;28.00;;;;;;7401290;19;19922;-72
2023/10/22 10:41:53;;;;;;;5.82;1.00;;;23.70;27.50;;;;;;7401784;19;19919;-72
2023/10/22 10:44:19;;;;;;;4.53;1.08;;;23.10;28.60;;;;;;7400735;19;19910;-73
2023/10/22 10:46:45;;;;;;;5.30;1.42;;;22.60;29.80;;;;;;7401529;19;19911;-73
2023/10/22 10:49:10;;;;;;;6.10;1.38;;;22.60;30.30;;;;;;7400067;19;19922;-72
2023/10/22 10:51:36;;;;;;;5.65;1.23;;;22.50;30.70;;;;;;7402217;19;19919;-72
2023/10/22 10:54:08;;;;;;;4.00;1.83;;;22.60;30.90;;;;;;7400284;19;19915;-72
2023/10/22 10:56:48;;;;;;;4.25;1.40;;;22.50;30.70;;;;;;7399609;19;20323;-73
2023/10/22 10:59:34;;;;;;;4.47;1.73;;;23.10;29.80;;;;;;7398404;19;19919;-75
2023/10/22 11:02:01;;;;;;;5.65;1.85;;;24.00;28.20;;;;;;7402375;19;19919;-74
2023/10/22 11:04:28;;;;;;;5.53;1.42;;;24.90;25.90;;;;;;7400943;19;19929;-72
2023/10/22 11:06:55;;;;;;;4.30;1.30;;;25.50;24.50;;;;;;7398444;19;19922;-72
2023/10/22 11:09:21;;;;;;;6.40;1.63;;;25.80;23.70;;;;;;7397667;19;19936;-72
2023/10/22 11:12:03;;;;;;;4.53;1.65;;;26.00;23.00;;;;;;7400086;19;20255;-72
2023/10/22 11:14:34;;;;;;;5.65;1.77;;;25.70;22.40;;;;;;7396911;19;20322;-72
2023/10/22 11:17:00;;;;;;;3.88;1.35;;;26.30;21.90;;;;;;7400083;19;20232;-72
2023/10/22 11:19:28;;;;;;;5.07;1.63;;;25.80;21.30;;;;;;7398632;19;19918;-72
2023/10/22 11:21:54;;;;;;;4.45;1.70;;;26.00;22.10;;;;;;7401616;19;19937;-72
2023/10/22 11:24:27;;;;;;;6.47;1.70;;;26.10;21.30;;;;;;7399031;19;19906;-71
2023/10/22 11:26:53;;;;;;;4.68;1.75;;;26.40;21.10;;;;;;7397865;19;19970;-71
2023/10/22 11:29:19;;;;;;;4.75;1.75;;;26.40;20.90;;;;;;7398767;19;19925;-73
2023/10/22 11:31:56;;;;;;;5.07;1.58;;;26.70;20.70;;;;;;7398971;19;19994;-73
2023/10/22 11:34:22;;;;;;;7.80;2.08;;;27.20;20.00;;;;;;7397006;19;19919;-73
2023/10/22 11:36:48;;;;;;;5.35;2.22;;;27.20;18.70;;;;;;7395750;19;19926;-73
2023/10/22 11:39:18;;;;;;;;;;;27.20;19.20;;;;;;7399980;19;19907;-72
2023/10/22 11:41:44;;;;;;;5.05;1.95;;;27.20;19.00;;;;;;7397476;19;20300;-72
2023/10/22 11:44:10;;;;;;;;;;;27.30;19.30;;;;;;7397569;19;20418;-72
2023/10/22 11:46:41;;;;;;;4.85;1.88;;;26.70;19.40;;;;;;7399093;19;20251;-74
2023/10/22 11:49:07;;;;;;;4.78;2.10;;;26.60;19.90;;;;;;7397410;19;19981;-72
2023/10/22 11:51:45;;;;;;;4.88;2.08;;;27.00;19.80;;;;;;7398758;19;19923;-72
2023/10/22 11:54:11;;;;;;;3.90;1.77;;;27.20;19.20;;;;;;7398060;19;20606;-72
2023/10/22 11:56:37;;;;;;;6.03;1.92;;;27.20;19.00;;;;;;7400903;19;19918;-72
2023/10/22 11:59:04;;;;;;;;;;;27.50;17.70;;;;;;7399922;19;19918;-73
2023/10/22 12:01:30;;;;;;;4.88;2.00;;;27.60;17.30;;;;;;7399915;19;19929;-73
2023/10/22 12:03:56;;;;;;;;;;;27.00;18.30;;;;;;7400416;19;19911;-73
2023/10/22 12:06:22;;;;;;;4.18;1.60;;;26.30;18.60;;;;;;7392000;19;20460;-73
2023/10/22 12:08:48;;;;;;;4.03;1.60;;;25.80;19.30;;;;;;7396453;19;19982;-72
2023/10/22 12:11:14;;;;;;;6.13;2.13;;;25.90;19.60;;;;;;7398017;19;19926;-74
2023/10/22 12:13:39;;;;;;;8.32;3.10;;;26.80;18.80;;;;;;7400570;19;20335;-73
2023/10/22 12:16:05;;;;;;;5.78;1.88;;;27.60;17.60;;;;;;7396749;19;19982;-72
2023/10/22 12:18:31;;;;;;;5.25;2.42;;;27.80;17.10;;;;;;7399081;19;19915;-73
2023/10/22 12:20:57;;;;;;;3.30;1.77;;;28.70;15.90;;;;;;7396207;19;19922;-73
2023/10/22 12:23:24;;;;;;;5.32;2.28;;;28.60;15.20;;;;;;7394852;19;19954;-72
2023/10/22 12:25:50;;;;;;;8.15;2.08;;;28.40;15.20;;;;;;7397711;19;19985;-72
2023/10/22 12:28:16;;;;;;;4.75;2.17;;;28.30;15.80;;;;;;7402691;19;19918;-73
2023/10/22 12:30:42;;;;;;;;;;;28.50;14.50;;;;;;7405068;19;19944;-72
2023/10/22 12:33:10;;;;;;;3.90;1.60;;;27.90;14.20;;;;;;7398661;19;19918;-71
2023/10/22 12:35:39;;;;;;;5.30;1.70;;;27.20;15.80;;;;;;7401171;19;19998;-72
2023/10/22 12:38:05;;;;;;;6.28;2.47;;;27.50;15.60;;;;;;7399295;19;19927;-73
2023/10/22 12:40:31;;;;;;;;;;;28.60;14.30;;;;;;7407053;19;19929;-73
2023/10/22 12:42:57;;;;;;;5.60;1.70;;;28.20;13.70;;;;;;7401594;19;20033;-72
2023/10/22 12:45:22;;;;;;;;;;;27.10;15.20;;;;;;7398259;19;20320;-72
2023/10/22 12:47:48;;;;;;;5.03;2.25;;;28.00;14.90;;;;;;7397641;19;20403;-73
2023/10/22 12:50:14;;;;;;;;;;;29.10;13.40;;;;;;7399173;19;19936;-72
2023/10/22 12:52:40;;;;;;;12.98;7.25;;;30.20;12.50;;;;;;7403650;19;20343;-73